Terminal Aerodrome Forecast
Issued by NWS

Home | Current Version | Previous Version | Text Only | Print | Product List | Glossary On
Versions: 1 2 3 4 5 6 7 8 9 10 11 12 13
000
FTAK31 PAFA 261728
TAFAOT
TAF
PAOT 261728Z 2618/2718 04004KT P6SM SKC
     FM262200 31004KT P6SM FEW100 FEW200
     FM271000 36005KT P6SM FEW200
     FM271500 06004KT P6SM SCT100 BKN200=

USA.gov is the U.S. government's official web portal to all federal, state and local government web resources and services.